Time;durP1;ratioP1;P1;durP2;ratioP2;P2;SDS_P1;SDS_P2;PMS_P1;PMS_P2;Temp;Humidity;BMP_temperature;BMP_pressure;BME280_temperature;BME280_humidity;BME280_pressure;Samples;Min_cycle;Max_cycle;Signal;HPM_P1;HPM_P2
2021/12/02 00:00:05;;;;;;;10.83;3.57;;;;;;;;;;4972834;28;20596;-84
2021/12/02 00:02:32;;;;;;;7.80;3.20;;;;;;;;;;4975005;28;20240;-84
2021/12/02 00:05:00;;;;;;;10.10;3.93;;;;;;;;;;4968873;28;20237;-84
2021/12/02 00:07:27;;;;;;;11.97;3.27;;;;;;;;;;4972106;28;20209;-80
2021/12/02 00:09:55;;;;;;;13.30;4.17;;;;;;;;;;4973873;28;20199;-84
2021/12/02 00:12:26;;;;;;;12.57;3.43;;;;;;;;;;4970943;28;20727;-84
2021/12/02 00:14:53;;;;;;;12.87;3.50;;;;;;;;;;4977172;28;20606;-85
2021/12/02 00:17:24;;;;;;;10.43;3.20;;;;;;;;;;4975319;28;20209;-82
2021/12/02 00:22:51;;;;;;;7.80;2.80;;;;;;;;;;4973221;28;20216;-84
2021/12/02 00:25:18;;;;;;;14.57;3.07;;;;;;;;;;4967250;28;20229;-83
2021/12/02 00:27:47;;;;;;;6.80;2.90;;;;;;;;;;4972901;28;20642;-82
2021/12/02 00:30:14;;;;;;;6.03;2.47;;;;;;;;;;4974815;28;20277;-81
2021/12/02 00:32:44;;;;;;;12.33;3.77;;;;;;;;;;4975773;28;20811;-84
2021/12/02 00:35:11;;;;;;;15.47;3.97;;;;;;;;;;4974195;28;20773;-84
2021/12/02 00:37:39;;;;;;;14.33;3.30;;;;;;;;;;4976403;28;20241;-84
2021/12/02 00:40:06;;;;;;;16.17;2.83;;;;;;;;;;4972570;28;20298;-84
2021/12/02 00:42:37;;;;;;;8.80;2.93;;;;;;;;;;4973612;28;20719;-84
2021/12/02 00:45:07;;;;;;;17.33;3.10;;;;;;;;;;4971964;28;20272;-84
2021/12/02 00:47:35;;;;;;;5.83;2.80;;;;;;;;;;4973081;28;20269;-85
2021/12/02 00:50:02;;;;;;;13.37;3.13;;;;;;;;;;4973436;28;20233;-83
2021/12/02 00:52:29;;;;;;;10.67;2.80;;;;;;;;;;4973672;28;20206;-84
2021/12/02 00:54:57;;;;;;;13.17;3.30;;;;;;;;;;4972908;28;20222;-82
2021/12/02 00:57:24;;;;;;;8.57;3.20;;;;;;;;;;4974677;28;20213;-82
2021/12/02 00:59:51;;;;;;;12.73;3.27;;;;;;;;;;4980012;28;20293;-82
2021/12/02 01:02:21;;;;;;;12.53;3.10;;;;;;;;;;4972686;28;20265;-82
2021/12/02 01:04:49;;;;;;;16.53;3.50;;;;;;;;;;4972185;28;20673;-83
2021/12/02 01:07:17;;;;;;;14.73;3.40;;;;;;;;;;4970636;28;20229;-83
2021/12/02 01:09:45;;;;;;;15.37;3.50;;;;;;;;;;4973446;28;20202;-83
2021/12/02 01:12:12;;;;;;;18.07;3.40;;;;;;;;;;4973107;28;20580;-83
2021/12/02 01:14:39;;;;;;;9.77;3.73;;;;;;;;;;4972904;28;20238;-84
2021/12/02 01:17:07;;;;;;;20.30;3.80;;;;;;;;;;4975105;28;20296;-83
2021/12/02 01:19:35;;;;;;;16.57;3.80;;;;;;;;;;4983332;28;20214;-83
2021/12/02 01:22:03;;;;;;;8.63;3.67;;;;;;;;;;4987607;28;20190;-82
2021/12/02 01:24:30;;;;;;;14.77;3.77;;;;;;;;;;4994952;28;20241;-82
2021/12/02 01:26:59;;;;;;;15.23;4.47;;;;;;;;;;4978348;28;20637;-83
2021/12/02 01:29:26;;;;;;;18.60;4.23;;;;;;;;;;4977951;28;20209;-83
2021/12/02 01:31:58;;;;;;;12.03;4.03;;;;;;;;;;4972013;28;20202;-83
2021/12/02 01:34:26;;;;;;;9.63;3.50;;;;;;;;;;4974428;28;20233;-83
2021/12/02 01:36:55;;;;;;;11.87;3.83;;;;;;;;;;4974273;28;20207;-83
2021/12/02 01:39:23;;;;;;;14.07;3.83;;;;;;;;;;4974277;28;20284;-83
2021/12/02 01:41:51;;;;;;;8.87;3.17;;;;;;;;;;4986630;28;20209;-84
2021/12/02 01:44:20;;;;;;;12.67;3.77;;;;;;;;;;4976988;28;20241;-84
2021/12/02 01:46:48;;;;;;;14.33;3.67;;;;;;;;;;4972248;28;20284;-84
2021/12/02 01:49:16;;;;;;;17.97;3.20;;;;;;;;;;4973979;28;20231;-82
2021/12/02 01:51:44;;;;;;;15.30;3.83;;;;;;;;;;4972723;28;20293;-81
2021/12/02 01:54:13;;;;;;;12.73;3.73;;;;;;;;;;4973824;28;20257;-81
2021/12/02 01:56:43;;;;;;;13.30;4.10;;;;;;;;;;4968618;28;20662;-82
2021/12/02 01:59:12;;;;;;;15.87;3.43;;;;;;;;;;4972817;28;20727;-83
2021/12/02 02:01:39;;;;;;;12.73;4.00;;;;;;;;;;4966779;28;20209;-83
2021/12/02 02:04:06;;;;;;;10.87;3.43;;;;;;;;;;4972859;28;20281;-81
2021/12/02 02:06:39;;;;;;;13.43;3.60;;;;;;;;;;4968331;28;20587;-81
2021/12/02 02:09:07;;;;;;;12.17;3.47;;;;;;;;;;4972031;28;20566;-82
2021/12/02 02:11:39;;;;;;;11.37;3.20;;;;;;;;;;4966280;28;20292;-84
2021/12/02 02:14:09;;;;;;;14.47;3.30;;;;;;;;;;4973747;28;20233;-81
2021/12/02 02:16:38;;;;;;;16.33;3.87;;;;;;;;;;4970270;28;20206;-84
2021/12/02 02:19:11;;;;;;;11.73;3.20;;;;;;;;;;4967296;28;20201;-81
2021/12/02 02:21:40;;;;;;;14.10;4.00;;;;;;;;;;4970776;28;20283;-84
2021/12/02 02:27:14;;;;;;;8.17;3.07;;;;;;;;;;4951860;28;20230;-83
2021/12/02 02:29:44;;;;;;;13.57;3.73;;;;;;;;;;4947224;28;20265;-82
2021/12/02 02:32:12;;;;;;;17.07;3.83;;;;;;;;;;4970834;28;20212;-81
2021/12/02 02:34:40;;;;;;;18.33;3.50;;;;;;;;;;4972002;28;20268;-82
2021/12/02 02:37:10;;;;;;;11.40;3.37;;;;;;;;;;4973511;28;20666;-82
2021/12/02 02:39:38;;;;;;;13.80;3.80;;;;;;;;;;4971611;28;20232;-84
2021/12/02 02:48:01;;;;;;;11.97;4.07;;;;;;;;;;4968108;28;20206;-82
2021/12/02 02:50:39;;;;;;;11.97;4.07;;;;;;;;;;4971442;28;20237;-84
2021/12/02 02:53:11;;;;;;;18.37;3.87;;;;;;;;;;4974061;28;20229;-84
2021/12/02 02:55:39;;;;;;;12.57;3.80;;;;;;;;;;4972747;28;20590;-83
2021/12/02 02:58:15;;;;;;;16.10;3.60;;;;;;;;;;4973043;28;20281;-84
2021/12/02 03:00:49;;;;;;;13.47;3.43;;;;;;;;;;4988845;28;20205;-84
2021/12/02 03:03:32;;;;;;;11.37;3.47;;;;;;;;;;4992390;28;20205;-83
2021/12/02 03:06:19;;;;;;;17.33;3.77;;;;;;;;;;4982566;28;20686;-83
2021/12/02 03:08:52;;;;;;;14.80;3.17;;;;;;;;;;4975523;28;20210;-83
2021/12/02 03:11:41;;;;;;;13.43;3.83;;;;;;;;;;4970099;28;20209;-83
2021/12/02 03:14:50;;;;;;;12.20;3.40;;;;;;;;;;4972649;28;20222;-84
2021/12/02 03:17:16;;;;;;;11.23;3.30;;;;;;;;;;4975392;28;20213;-84
2021/12/02 03:19:47;;;;;;;15.30;3.50;;;;;;;;;;4971962;28;20214;-83
2021/12/02 03:22:17;;;;;;;8.37;3.60;;;;;;;;;;4969237;28;20216;-84
2021/12/02 03:24:46;;;;;;;16.87;3.73;;;;;;;;;;4971016;28;20387;-83
2021/12/02 03:27:14;;;;;;;12.97;3.63;;;;;;;;;;4973402;28;20653;-82
2021/12/02 03:29:41;;;;;;;12.10;2.97;;;;;;;;;;4973880;28;20229;-83
2021/12/02 03:32:09;;;;;;;12.87;3.27;;;;;;;;;;4966174;28;20289;-83
2021/12/02 03:34:36;;;;;;;9.30;3.00;;;;;;;;;;4971364;28;20674;-83
2021/12/02 03:37:04;;;;;;;13.40;3.63;;;;;;;;;;4969006;28;20237;-83
2021/12/02 03:39:31;;;;;;;8.90;3.20;;;;;;;;;;4964880;28;20289;-83
2021/12/02 03:42:02;;;;;;;11.90;3.10;;;;;;;;;;4971301;28;20201;-83
2021/12/02 03:44:54;;;;;;;13.40;3.50;;;;;;;;;;4974199;28;20230;-82
2021/12/02 03:47:27;;;;;;;10.13;3.10;;;;;;;;;;4969761;28;20257;-84
2021/12/02 03:49:55;;;;;;;15.00;3.70;;;;;;;;;;4974328;28;20193;-84
2021/12/02 03:52:22;;;;;;;15.13;3.40;;;;;;;;;;4972361;28;20210;-83
2021/12/02 03:54:49;;;;;;;10.90;4.17;;;;;;;;;;4969759;28;20316;-84
2021/12/02 03:57:18;;;;;;;14.37;4.23;;;;;;;;;;4972416;28;20297;-83
2021/12/02 03:59:45;;;;;;;16.50;4.63;;;;;;;;;;4969488;28;20209;-83
2021/12/02 04:02:12;;;;;;;17.93;3.70;;;;;;;;;;4970971;28;20394;-83
2021/12/02 04:04:39;;;;;;;13.40;4.10;;;;;;;;;;4971463;28;20635;-84
2021/12/02 04:07:06;;;;;;;7.23;2.87;;;;;;;;;;4969137;28;20721;-83
2021/12/02 04:09:38;;;;;;;9.67;2.60;;;;;;;;;;4971267;28;20205;-83
2021/12/02 04:12:11;;;;;;;8.97;2.77;;;;;;;;;;4970441;28;20237;-83
2021/12/02 04:14:43;;;;;;;11.53;2.67;;;;;;;;;;4969026;28;20222;-84
2021/12/02 04:17:13;;;;;;;6.73;2.50;;;;;;;;;;4971512;28;20621;-84
2021/12/02 04:20:12;;;;;;;6.20;2.73;;;;;;;;;;4971315;28;20215;-84
2021/12/02 04:22:39;;;;;;;5.80;2.20;;;;;;;;;;4970933;28;20692;-83
2021/12/02 04:25:14;;;;;;;9.07;1.77;;;;;;;;;;4971272;28;20261;-82
2021/12/02 04:27:41;;;;;;;5.10;2.00;;;;;;;;;;4971159;28;20330;-83
2021/12/02 04:30:12;;;;;;;7.27;1.93;;;;;;;;;;4969770;28;20650;-83
2021/12/02 04:32:39;;;;;;;2.50;1.50;;;;;;;;;;4971973;28;20236;-83
2021/12/02 04:35:07;;;;;;;3.63;1.40;;;;;;;;;;4973238;28;20317;-82
2021/12/02 04:37:35;;;;;;;2.50;1.40;;;;;;;;;;4967666;28;20206;-83
2021/12/02 04:40:02;;;;;;;2.43;1.37;;;;;;;;;;4977785;28;20197;-82
2021/12/02 04:42:30;;;;;;;2.43;1.43;;;;;;;;;;4990364;28;20229;-82
2021/12/02 04:44:57;;;;;;;6.97;2.00;;;;;;;;;;4979265;28;20717;-83
2021/12/02 04:47:26;;;;;;;3.67;1.47;;;;;;;;;;4975257;28;20314;-84
2021/12/02 04:49:53;;;;;;;7.27;1.80;;;;;;;;;;4971474;28;20214;-83
2021/12/02 04:52:20;;;;;;;3.80;1.80;;;;;;;;;;4972998;28;20209;-82
2021/12/02 04:54:48;;;;;;;4.30;2.07;;;;;;;;;;4979612;28;20324;-81
2021/12/02 04:57:15;;;;;;;4.23;1.97;;;;;;;;;;4979010;28;20221;-82
2021/12/02 04:59:42;;;;;;;5.23;1.97;;;;;;;;;;4983105;28;20248;-82
2021/12/02 05:02:09;;;;;;;4.37;2.00;;;;;;;;;;4973894;28;20229;-82
2021/12/02 05:04:38;;;;;;;5.37;2.00;;;;;;;;;;4969753;28;20607;-82
2021/12/02 05:07:05;;;;;;;4.73;1.50;;;;;;;;;;4970073;28;20231;-83
2021/12/02 05:09:32;;;;;;;3.83;1.77;;;;;;;;;;4972253;28;20217;-83
2021/12/02 05:12:05;;;;;;;2.30;1.30;;;;;;;;;;4969600;28;20297;-82
2021/12/02 05:14:32;;;;;;;5.07;1.70;;;;;;;;;;4966531;28;20325;-82
2021/12/02 05:16:59;;;;;;;3.47;1.40;;;;;;;;;;4973662;28;20197;-82
2021/12/02 05:19:28;;;;;;;2.87;1.33;;;;;;;;;;4969748;28;20661;-82
2021/12/02 05:21:59;;;;;;;3.67;1.57;;;;;;;;;;4969904;28;20226;-82
2021/12/02 05:24:26;;;;;;;4.00;1.37;;;;;;;;;;4970263;28;20301;-82
2021/12/02 05:26:54;;;;;;;4.27;1.63;;;;;;;;;;4970958;28;20264;-82
2021/12/02 05:29:21;;;;;;;2.17;1.53;;;;;;;;;;4973812;28;20248;-83
2021/12/02 05:31:49;;;;;;;6.67;1.83;;;;;;;;;;4971739;28;20221;-83
2021/12/02 05:34:16;;;;;;;3.83;1.30;;;;;;;;;;4976854;28;20257;-81
2021/12/02 05:36:45;;;;;;;3.90;1.70;;;;;;;;;;4971280;28;20289;-85
2021/12/02 05:39:13;;;;;;;3.63;1.43;;;;;;;;;;4973568;28;20241;-82
2021/12/02 05:41:40;;;;;;;1.53;0.90;;;;;;;;;;4970908;28;20256;-82
2021/12/02 05:44:08;;;;;;;3.00;1.40;;;;;;;;;;4988459;28;20213;-85
2021/12/02 05:46:37;;;;;;;2.83;1.50;;;;;;;;;;4973657;28;20221;-83
2021/12/02 05:49:04;;;;;;;2.90;1.20;;;;;;;;;;4974379;28;20634;-84
2021/12/02 05:51:31;;;;;;;7.10;1.80;;;;;;;;;;4969365;28;20261;-83
2021/12/02 05:53:59;;;;;;;2.93;1.30;;;;;;;;;;4972474;28;20225;-84
2021/12/02 05:56:27;;;;;;;3.33;1.77;;;;;;;;;;4974062;28;20649;-83
2021/12/02 05:58:54;;;;;;;4.90;1.73;;;;;;;;;;4971017;28;20210;-83
2021/12/02 06:01:21;;;;;;;4.17;1.63;;;;;;;;;;4970900;28;20297;-82
2021/12/02 06:03:49;;;;;;;4.30;1.63;;;;;;;;;;4972192;28;20301;-83
2021/12/02 06:06:17;;;;;;;3.57;1.97;;;;;;;;;;4971005;28;20268;-83
2021/12/02 06:08:44;;;;;;;3.63;1.60;;;;;;;;;;4967809;28;20213;-83
2021/12/02 06:11:12;;;;;;;3.93;1.67;;;;;;;;;;4970197;28;20212;-83
2021/12/02 06:13:41;;;;;;;3.17;1.70;;;;;;;;;;4970788;28;20281;-83
2021/12/02 06:16:09;;;;;;;2.60;1.50;;;;;;;;;;4972548;28;20210;-83
2021/12/02 06:21:23;;;;;;;3.10;1.50;;;;;;;;;;4968383;28;20284;-84
2021/12/02 06:23:50;;;;;;;2.30;1.63;;;;;;;;;;4972059;28;20221;-83
2021/12/02 06:26:17;;;;;;;3.90;2.07;;;;;;;;;;4972736;28;20248;-85
2021/12/02 06:28:46;;;;;;;7.40;2.37;;;;;;;;;;4975408;28;20269;-80
2021/12/02 06:31:14;;;;;;;6.10;2.50;;;;;;;;;;4972753;28;20675;-84
2021/12/02 06:33:41;;;;;;;10.20;2.60;;;;;;;;;;4976071;28;20240;-84
2021/12/02 06:36:09;;;;;;;5.87;2.33;;;;;;;;;;4974564;28;20273;-83
2021/12/02 06:38:36;;;;;;;6.30;2.30;;;;;;;;;;4968491;28;20282;-81
2021/12/02 06:41:07;;;;;;;5.40;2.50;;;;;;;;;;4974679;28;20237;-83
2021/12/02 06:43:39;;;;;;;5.87;2.90;;;;;;;;;;4970113;28;20210;-82
2021/12/02 06:46:08;;;;;;;9.33;3.30;;;;;;;;;;4976302;28;20351;-83
2021/12/02 06:48:39;;;;;;;8.43;2.77;;;;;;;;;;4975715;28;20293;-83
2021/12/02 06:51:09;;;;;;;4.87;2.80;;;;;;;;;;4972672;28;20302;-82
2021/12/02 06:53:40;;;;;;;9.47;3.13;;;;;;;;;;4979283;28;20728;-82
2021/12/02 06:56:09;;;;;;;7.00;3.33;;;;;;;;;;4971978;28;20213;-82
2021/12/02 06:58:38;;;;;;;6.40;3.30;;;;;;;;;;4974491;28;20208;-82
2021/12/02 07:01:06;;;;;;;4.97;2.97;;;;;;;;;;4970736;28;20233;-82
2021/12/02 07:03:34;;;;;;;7.57;3.40;;;;;;;;;;4973841;28;20260;-82
2021/12/02 07:06:13;;;;;;;6.93;3.50;;;;;;;;;;4965242;28;20209;-82
2021/12/02 07:08:46;;;;;;;6.57;3.70;;;;;;;;;;4967857;28;20637;-83
2021/12/02 07:11:18;;;;;;;9.20;4.27;;;;;;;;;;4966651;28;20216;-83
2021/12/02 07:13:53;;;;;;;10.30;4.10;;;;;;;;;;4969719;28;20630;-83
2021/12/02 07:16:31;;;;;;;10.03;3.73;;;;;;;;;;4969809;28;20216;-83
2021/12/02 07:19:01;;;;;;;11.40;4.20;;;;;;;;;;4973621;28;20201;-82
2021/12/02 07:21:37;;;;;;;12.23;4.33;;;;;;;;;;4967031;28;20210;-83
2021/12/02 07:24:17;;;;;;;11.63;4.00;;;;;;;;;;4965417;28;20987;-83
2021/12/02 07:26:48;;;;;;;8.67;4.47;;;;;;;;;;4966003;28;20204;-82
2021/12/02 07:29:24;;;;;;;6.67;4.00;;;;;;;;;;4970250;28;20206;-84
2021/12/02 07:32:12;;;;;;;10.37;4.13;;;;;;;;;;4969982;28;20269;-84
2021/12/02 07:34:56;;;;;;;9.00;4.53;;;;;;;;;;4968423;28;20267;-84
2021/12/02 07:37:27;;;;;;;16.23;7.57;;;;;;;;;;4969094;28;20201;-83
2021/12/02 07:42:39;;;;;;;11.80;4.93;;;;;;;;;;4971875;28;20730;-84
2021/12/02 07:45:11;;;;;;;14.33;5.37;;;;;;;;;;4971463;28;20237;-83
2021/12/02 07:47:40;;;;;;;6.33;2.63;;;;;;;;;;4967848;28;20228;-82
2021/12/02 07:53:05;;;;;;;8.23;2.50;;;;;;;;;;4972622;28;20202;-83
2021/12/02 07:55:36;;;;;;;4.67;2.10;;;;;;;;;;4970020;28;20268;-83
2021/12/02 08:00:52;;;;;;;5.93;2.47;;;;;;;;;;4974759;28;20229;-83
2021/12/02 08:06:04;;;;;;;24.90;15.07;;;;;;;;;;4974158;28;20214;-83
2021/12/02 08:08:34;;;;;;;20.10;11.90;;;;;;;;;;4971845;28;20233;-81
2021/12/02 08:11:01;;;;;;;26.73;15.30;;;;;;;;;;4969366;28;20608;-84
2021/12/02 08:13:35;;;;;;;28.70;17.10;;;;;;;;;;4965752;28;21072;-84
2021/12/02 08:16:15;;;;;;;5.33;3.30;;;;;;;;;;4970923;28;20208;-82
2021/12/02 08:19:01;;;;;;;19.90;12.97;;;;;;;;;;4969462;28;20206;-82
2021/12/02 08:21:29;;;;;;;9.23;5.40;;;;;;;;;;4973714;28;20245;-82
2021/12/02 08:23:57;;;;;;;3.50;1.70;;;;;;;;;;4974307;28;20229;-84
2021/12/02 08:26:26;;;;;;;6.20;3.40;;;;;;;;;;4973675;28;20225;-84
2021/12/02 08:28:58;;;;;;;6.40;2.33;;;;;;;;;;4974352;28;20277;-84
2021/12/02 08:31:25;;;;;;;2.93;1.70;;;;;;;;;;4986863;28;20202;-82
2021/12/02 08:33:57;;;;;;;4.50;2.60;;;;;;;;;;4982855;28;20589;-82
2021/12/02 08:36:30;;;;;;;4.80;3.07;;;;;;;;;;4975747;28;20222;-82
2021/12/02 08:39:02;;;;;;;4.03;2.43;;;;;;;;;;4978377;28;20228;-82
2021/12/02 08:41:29;;;;;;;3.53;2.00;;;;;;;;;;4972534;28;20212;-82
2021/12/02 08:43:59;;;;;;;3.47;2.20;;;;;;;;;;4973319;28;20664;-83
2021/12/02 08:46:29;;;;;;;4.90;2.30;;;;;;;;;;4973853;28;20236;-83
2021/12/02 08:48:56;;;;;;;4.57;2.60;;;;;;;;;;4974898;28;20683;-83
2021/12/02 08:51:24;;;;;;;6.00;2.83;;;;;;;;;;4973012;28;20698;-82
2021/12/02 08:53:52;;;;;;;7.93;3.90;;;;;;;;;;4973409;28;20238;-82
2021/12/02 08:56:21;;;;;;;4.43;2.43;;;;;;;;;;4970945;28;20237;-81
2021/12/02 08:58:51;;;;;;;5.20;3.27;;;;;;;;;;4974457;28;20650;-81
2021/12/02 09:01:42;;;;;;;7.40;3.40;;;;;;;;;;4974666;28;20220;-84
2021/12/02 09:04:10;;;;;;;5.90;3.37;;;;;;;;;;4973124;28;20233;-83
2021/12/02 09:06:38;;;;;;;11.53;2.87;;;;;;;;;;4973796;28;20233;-83
2021/12/02 09:09:08;;;;;;;5.97;2.60;;;;;;;;;;4972780;28;20307;-83
2021/12/02 09:11:44;;;;;;;5.37;2.93;;;;;;;;;;4969046;28;20213;-83
2021/12/02 09:14:11;;;;;;;8.90;3.90;;;;;;;;;;4970419;28;20221;-84
2021/12/02 09:19:23;;;;;;;9.10;3.27;;;;;;;;;;4972072;28;20685;-83
2021/12/02 09:22:13;;;;;;;5.43;3.00;;;;;;;;;;4972338;28;20206;-84
2021/12/02 09:24:40;;;;;;;4.13;2.20;;;;;;;;;;4975201;28;20221;-82
2021/12/02 09:30:47;;;;;;;5.17;2.80;;;;;;;;;;4940951;29;20211;-83
2021/12/02 09:33:15;;;;;;;6.13;3.03;;;;;;;;;;4963173;28;20213;-82
2021/12/02 09:35:44;;;;;;;10.57;3.10;;;;;;;;;;4980897;28;20225;-83
2021/12/02 09:38:14;;;;;;;7.30;2.83;;;;;;;;;;4983214;28;20206;-83
2021/12/02 09:40:48;;;;;;;6.80;3.10;;;;;;;;;;4985639;28;20293;-83
2021/12/02 09:43:19;;;;;;;4.63;2.90;;;;;;;;;;4962296;28;20213;-82
2021/12/02 09:45:46;;;;;;;5.23;2.47;;;;;;;;;;5105329;22;20296;-82
2021/12/02 09:48:13;;;;;;;6.37;2.67;;;;;;;;;;5000627;28;20236;-80
2021/12/02 09:50:50;;;;;;;6.57;2.80;;;;;;;;;;4996293;28;20263;-81
2021/12/02 09:53:21;;;;;;;8.27;3.60;;;;;;;;;;4983569;28;20232;-81
2021/12/02 09:55:55;;;;;;;6.57;2.97;;;;;;;;;;4982119;28;20212;-82
2021/12/02 09:58:25;;;;;;;6.83;3.70;;;;;;;;;;4981663;28;20202;-81
2021/12/02 10:00:58;;;;;;;6.77;3.60;;;;;;;;;;4984334;28;20216;-82
2021/12/02 10:03:32;;;;;;;12.30;4.50;;;;;;;;;;4980194;28;20531;-81
2021/12/02 10:06:01;;;;;;;17.77;9.40;;;;;;;;;;4980052;28;20224;-80
2021/12/02 10:08:32;;;;;;;9.67;5.17;;;;;;;;;;4984306;28;20317;-81
2021/12/02 10:11:01;;;;;;;14.47;4.23;;;;;;;;;;4980923;28;20905;-81
2021/12/02 10:13:32;;;;;;;11.03;7.00;;;;;;;;;;4981897;28;20209;-81
2021/12/02 10:16:04;;;;;;;7.47;3.63;;;;;;;;;;4986621;28;20710;-82
2021/12/02 10:18:35;;;;;;;10.60;4.50;;;;;;;;;;4984976;28;20970;-81
2021/12/02 10:21:16;;;;;;;7.33;4.67;;;;;;;;;;4982829;28;20225;-81
2021/12/02 10:23:47;;;;;;;6.43;2.83;;;;;;;;;;4982040;28;20649;-83
2021/12/02 10:26:18;;;;;;;6.03;3.57;;;;;;;;;;4981800;28;20457;-82
2021/12/02 10:28:47;;;;;;;12.30;6.83;;;;;;;;;;4979765;28;20623;-83
2021/12/02 10:31:19;;;;;;;8.90;5.63;;;;;;;;;;4977816;28;20235;-82
2021/12/02 10:33:50;;;;;;;11.27;7.60;;;;;;;;;;4981072;28;20198;-80
2021/12/02 10:36:24;;;;;;;10.20;6.17;;;;;;;;;;4981680;28;20300;-83
2021/12/02 10:38:52;;;;;;;5.33;2.40;;;;;;;;;;4979200;28;20251;-81
2021/12/02 10:41:21;;;;;;;6.00;3.10;;;;;;;;;;4979671;28;20316;-78
2021/12/02 10:44:07;;;;;;;7.43;3.33;;;;;;;;;;4985988;28;20209;-79
2021/12/02 10:46:36;;;;;;;10.70;5.00;;;;;;;;;;4982217;28;20687;-80
2021/12/02 10:49:04;;;;;;;5.10;2.40;;;;;;;;;;4981785;28;20765;-80
2021/12/02 10:54:24;;;;;;;3.90;2.43;;;;;;;;;;4983295;28;20269;-81
2021/12/02 10:56:53;;;;;;;5.53;2.77;;;;;;;;;;4975289;28;20209;-80
2021/12/02 10:59:24;;;;;;;6.93;4.27;;;;;;;;;;4981913;28;20201;-81
2021/12/02 11:01:52;;;;;;;5.40;3.00;;;;;;;;;;4979261;28;20256;-81
2021/12/02 11:04:20;;;;;;;5.57;2.80;;;;;;;;;;4986908;28;20209;-80
2021/12/02 11:06:50;;;;;;;4.30;2.50;;;;;;;;;;4979486;28;20224;-80
2021/12/02 11:09:27;;;;;;;6.43;3.27;;;;;;;;;;4984381;28;20221;-81
2021/12/02 11:12:08;;;;;;;5.17;3.00;;;;;;;;;;4978162;28;20251;-79
2021/12/02 11:14:35;;;;;;;5.50;3.00;;;;;;;;;;4985586;28;20201;-81
2021/12/02 11:17:10;;;;;;;5.87;3.20;;;;;;;;;;4980517;28;20638;-82
2021/12/02 11:19:37;;;;;;;8.43;3.00;;;;;;;;;;4992631;28;20217;-82
2021/12/02 11:22:05;;;;;;;5.30;2.60;;;;;;;;;;4982280;28;20309;-81
2021/12/02 11:24:33;;;;;;;9.13;3.30;;;;;;;;;;4980963;28;20561;-80
2021/12/02 11:27:10;;;;;;;5.03;2.50;;;;;;;;;;4982897;28;20201;-82
2021/12/02 11:29:48;;;;;;;5.57;2.63;;;;;;;;;;4981353;28;20311;-82
2021/12/02 11:32:39;;;;;;;5.27;3.30;;;;;;;;;;4979484;28;20217;-82
2021/12/02 11:35:12;;;;;;;5.20;2.80;;;;;;;;;;4959290;28;20241;-80
2021/12/02 11:37:39;;;;;;;7.40;3.17;;;;;;;;;;4978973;28;20205;-81
2021/12/02 11:40:09;;;;;;;5.63;3.10;;;;;;;;;;4981245;28;20201;-81
2021/12/02 11:42:38;;;;;;;5.53;2.83;;;;;;;;;;4977077;28;20224;-82
2021/12/02 11:45:05;;;;;;;7.47;2.90;;;;;;;;;;4977561;28;20256;-81
2021/12/02 11:47:33;;;;;;;9.57;3.00;;;;;;;;;;4978264;28;20655;-83
2021/12/02 11:50:00;;;;;;;6.83;3.70;;;;;;;;;;4977032;28;20311;-82
2021/12/02 11:52:28;;;;;;;7.90;3.77;;;;;;;;;;4976750;28;20292;-81
2021/12/02 11:54:59;;;;;;;9.43;3.50;;;;;;;;;;4979200;28;20263;-81
2021/12/02 11:57:27;;;;;;;6.13;3.33;;;;;;;;;;4979623;28;20300;-80
2021/12/02 11:59:54;;;;;;;6.37;3.27;;;;;;;;;;4979561;28;20221;-81
2021/12/02 12:02:21;;;;;;;7.47;3.20;;;;;;;;;;4979680;28;20240;-81
2021/12/02 12:04:54;;;;;;;8.43;5.17;;;;;;;;;;4978530;28;20208;-78
2021/12/02 12:07:22;;;;;;;8.43;4.13;;;;;;;;;;4990798;28;20273;-79
2021/12/02 12:10:10;;;;;;;4.50;2.77;;;;;;;;;;4990610;28;20229;-82
2021/12/02 12:12:39;;;;;;;11.30;3.40;;;;;;;;;;5010690;28;20223;-82
2021/12/02 12:15:06;;;;;;;5.80;3.57;;;;;;;;;;4989610;28;20248;-81
2021/12/02 12:17:40;;;;;;;4.20;2.57;;;;;;;;;;4986893;28;20194;-82
2021/12/02 12:20:08;;;;;;;6.23;2.30;;;;;;;;;;4988606;28;20232;-83
2021/12/02 12:22:38;;;;;;;4.50;2.20;;;;;;;;;;4989642;28;20725;-82
2021/12/02 12:25:07;;;;;;;7.63;2.60;;;;;;;;;;4986541;28;20209;-82
2021/12/02 12:27:36;;;;;;;8.20;2.47;;;;;;;;;;4987455;28;20300;-81
2021/12/02 12:30:23;;;;;;;6.20;2.23;;;;;;;;;;4984349;28;20221;-82
2021/12/02 12:32:58;;;;;;;5.10;2.70;;;;;;;;;;4980240;28;20269;-82
2021/12/02 12:35:42;;;;;;;4.17;2.40;;;;;;;;;;4979216;28;20205;-82
2021/12/02 12:38:27;;;;;;;10.90;2.80;;;;;;;;;;4979150;28;20313;-82
2021/12/02 12:40:56;;;;;;;4.23;2.10;;;;;;;;;;4980824;28;20316;-82
2021/12/02 12:43:34;;;;;;;5.40;2.73;;;;;;;;;;4981586;28;20327;-82
2021/12/02 12:46:19;;;;;;;4.37;2.30;;;;;;;;;;4981320;28;20217;-82
2021/12/02 12:51:37;;;;;;;4.40;2.10;;;;;;;;;;4986901;28;20279;-81
2021/12/02 12:54:06;;;;;;;5.93;3.20;;;;;;;;;;4985015;28;20707;-83
2021/12/02 12:56:36;;;;;;;3.43;1.90;;;;;;;;;;4985723;28;20240;-80
2021/12/02 12:59:05;;;;;;;4.43;2.30;;;;;;;;;;4984908;28;20201;-81
2021/12/02 13:01:32;;;;;;;3.93;2.00;;;;;;;;;;4985445;28;20296;-81
2021/12/02 13:04:22;;;;;;;4.33;2.17;;;;;;;;;;4990131;28;20209;-81
2021/12/02 13:07:06;;;;;;;4.00;2.70;;;;;;;;;;4984378;28;20218;-82
2021/12/02 13:09:37;;;;;;;7.73;3.07;;;;;;;;;;4992379;28;20283;-81
2021/12/02 13:12:07;;;;;;;6.70;2.30;;;;;;;;;;4989269;28;20232;-82
2021/12/02 13:14:35;;;;;;;5.50;2.83;;;;;;;;;;4994645;28;20204;-81
2021/12/02 13:17:17;;;;;;;5.97;2.23;;;;;;;;;;4989608;28;20206;-82
2021/12/02 13:19:58;;;;;;;4.10;1.77;;;;;;;;;;4988097;28;20318;-82
2021/12/02 13:22:25;;;;;;;2.80;1.30;;;;;;;;;;4984919;28;20656;-83
2021/12/02 13:24:53;;;;;;;3.17;1.50;;;;;;;;;;4986196;28;20229;-82
2021/12/02 13:27:22;;;;;;;3.73;1.30;;;;;;;;;;4983537;28;20287;-82
2021/12/02 13:29:52;;;;;;;2.37;1.10;;;;;;;;;;4984679;28;20229;-83
2021/12/02 13:32:19;;;;;;;2.63;1.10;;;;;;;;;;4990361;28;20233;-83
2021/12/02 13:34:46;;;;;;;5.90;1.47;;;;;;;;;;4987351;28;20699;-82
2021/12/02 13:37:15;;;;;;;2.13;0.80;;;;;;;;;;4989698;28;20273;-82
2021/12/02 13:39:43;;;;;;;3.17;1.10;;;;;;;;;;4988495;28;20211;-83
2021/12/02 13:42:11;;;;;;;4.20;1.07;;;;;;;;;;4987719;28;20236;-83
2021/12/02 13:44:44;;;;;;;1.93;1.10;;;;;;;;;;4992479;28;20212;-83
2021/12/02 13:47:14;;;;;;;2.60;1.00;;;;;;;;;;4988765;28;20209;-83
2021/12/02 13:49:46;;;;;;;4.83;1.13;;;;;;;;;;4993154;28;20228;-82
2021/12/02 13:52:22;;;;;;;2.37;1.30;;;;;;;;;;4991164;28;20240;-81
2021/12/02 13:54:53;;;;;;;4.83;2.20;;;;;;;;;;4989591;28;20214;-83
2021/12/02 13:57:24;;;;;;;2.60;1.40;;;;;;;;;;4995724;28;20202;-81
2021/12/02 13:59:53;;;;;;;12.77;6.23;;;;;;;;;;4992791;28;20208;-81
2021/12/02 14:02:21;;;;;;;4.07;1.97;;;;;;;;;;4987557;28;20218;-82
2021/12/02 14:04:49;;;;;;;9.37;4.40;;;;;;;;;;4984921;28;20209;-82
2021/12/02 14:07:20;;;;;;;2.80;1.50;;;;;;;;;;4992986;28;20315;-81
2021/12/02 14:09:50;;;;;;;17.63;6.20;;;;;;;;;;4995412;28;20229;-82
2021/12/02 14:12:17;;;;;;;15.53;6.50;;;;;;;;;;4986908;28;20225;-81
2021/12/02 14:15:06;;;;;;;10.87;4.10;;;;;;;;;;4983778;28;20633;-82
2021/12/02 14:17:34;;;;;;;4.47;2.10;;;;;;;;;;4982425;28;20350;-81
2021/12/02 14:20:06;;;;;;;4.40;1.80;;;;;;;;;;4984029;28;20198;-80
2021/12/02 14:22:35;;;;;;;6.40;4.03;;;;;;;;;;4987378;28;20373;-81
2021/12/02 14:25:04;;;;;;;5.77;2.73;;;;;;;;;;4989457;28;20220;-83
2021/12/02 14:27:31;;;;;;;5.07;2.80;;;;;;;;;;4983331;28;20636;-81
2021/12/02 14:30:19;;;;;;;8.27;1.80;;;;;;;;;;4990386;28;20614;-82
2021/12/02 14:32:47;;;;;;;2.70;1.40;;;;;;;;;;4990575;28;20292;-80
2021/12/02 14:35:16;;;;;;;8.40;3.20;;;;;;;;;;4993580;28;20249;-82
2021/12/02 14:37:45;;;;;;;5.03;1.70;;;;;;;;;;4988869;28;20206;-81
2021/12/02 14:40:14;;;;;;;7.23;2.07;;;;;;;;;;4989828;28;20671;-81
2021/12/02 14:42:42;;;;;;;4.43;1.70;;;;;;;;;;4986862;28;20233;-81
2021/12/02 14:45:24;;;;;;;6.53;2.10;;;;;;;;;;4984907;28;20221;-80
2021/12/02 14:47:51;;;;;;;5.73;2.30;;;;;;;;;;4989947;28;20201;-82
2021/12/02 14:50:32;;;;;;;2.50;1.80;;;;;;;;;;4992224;28;20724;-79
2021/12/02 14:52:59;;;;;;;5.30;2.80;;;;;;;;;;4966565;28;20205;-77
2021/12/02 14:55:31;;;;;;;4.73;2.30;;;;;;;;;;4964498;28;20298;-78
2021/12/02 14:57:59;;;;;;;9.13;1.70;;;;;;;;;;4966791;28;21722;-78
2021/12/02 15:00:30;;;;;;;6.90;3.23;;;;;;;;;;4968076;28;21029;-77
2021/12/02 15:05:48;;;;;;;6.07;3.13;;;;;;;;;;4978162;28;20243;-77
2021/12/02 15:08:16;;;;;;;12.87;4.60;;;;;;;;;;4968159;28;20214;-78
2021/12/02 15:11:00;;;;;;;12.87;4.43;;;;;;;;;;4973854;28;20233;-78
2021/12/02 15:13:44;;;;;;;6.37;2.33;;;;;;;;;;4986271;28;20296;-80
2021/12/02 15:16:13;;;;;;;9.10;2.13;;;;;;;;;;4969388;28;20349;-77
2021/12/02 15:18:44;;;;;;;7.23;3.63;;;;;;;;;;4972803;28;20212;-78
2021/12/02 15:21:11;;;;;;;5.93;2.87;;;;;;;;;;4984537;28;20536;-77
2021/12/02 15:23:38;;;;;;;12.43;3.60;;;;;;;;;;4982511;28;20206;-76
2021/12/02 15:26:10;;;;;;;24.40;12.23;;;;;;;;;;4981719;28;20312;-79
2021/12/02 15:28:42;;;;;;;17.90;8.73;;;;;;;;;;4982275;28;20204;-78
2021/12/02 15:31:10;;;;;;;13.10;7.70;;;;;;;;;;4981336;28;20248;-77
2021/12/02 15:33:40;;;;;;;14.50;6.20;;;;;;;;;;4977112;28;20216;-77
2021/12/02 15:36:12;;;;;;;17.50;7.53;;;;;;;;;;4982126;28;20238;-77
2021/12/02 15:38:40;;;;;;;9.70;6.07;;;;;;;;;;4980440;28;20296;-78